ISABELLA DAM (ISB)

Elevation: 2635' · KERN R basin · Operator: US Army Corps of Engineers

Provisional data, subject to change.
Query executed Sunday at 15:20:41   clock

Select a sensor type for a plot of data.
Note: Reservoir Flows are daily averages.

Earlier

Date RES ELE    STORAGE    RES CHG    TOC STO    ABV TOC    OUTFLOW    INFLOW    FNF    PPT INC    PPTINC4    TEMP MN    TEMP MX    WINDLEN    EVP PAN   
 FEET   AF   AF   AF   AF   CFS   CFS   CFS   INCHES   INCHES   DEG F   DEG F   MILES   INCHES  
06/25/2016 2559.04 161872 464 361250 -199378 634 947 947 0.01 0.00 18 34 318 0.45
06/26/2016 2559.07 162046 174 361250 -199204 659 830 830 0.05 0.00 18 38 238 0.47
06/27/2016 2559.08 162104 58 361250 -199146 708 826 826 0.02 0.00 20 39 278 0.51
06/28/2016 2559.09 162162 58 361250 -199088 739 839 839 0.00 0.00 23 38 224 0.40
06/29/2016 2559.08 162104 -58 361250 -199146 780 832 832 0.08 0.00 20 38 244 0.47
06/30/2016 2559.06 161988 -116 361250 -199262 768 806 806 0.00 0.00 22 39 253 0.52
07/01/2016 2559.05 161930 -58 361250 -199320 743 803 803 0.01 0.00 21 38 235 0.48
07/02/2016 2559.03 161814 -116 361250 -199436 741 768 768 0.00 0.00 21 38 205 0.46
07/03/2016 2558.95 161351 -463 361250 -199899 776 632 632 0.00 0.00 21 37 230 0.48
07/04/2016 2558.84 160715 -636 361250 -200535 846 613 613 0.00 0.00 20 35 260 0.47
07/05/2016 2558.68 159793 -922 361250 -201457 893 524 524 0.00 0.00 21 33 384 0.52
07/06/2016 2558.50 158761 -1032 361250 -202489 926 502 502 0.00 0.00 21 32 393 0.52
07/07/2016 2558.34 157846 -915 361250 -203404 883 514 514 0.00 0.00 20 32 397 0.50
07/08/2016 2558.19 156992 -854 361250 -204258 806 465 465 0.00 0.00 20 33 366 0.49
07/09/2016 2558.01 155971 -1021 361250 -205279 785 352 352 0.00 0.00 20 30 395 0.44
07/10/2016 2557.86 155124 -847 361250 -206126 759 411 411 0.00 0.00 19 27 482 0.43
07/11/2016 2557.73 154392 -732 361250 -206858 705 420 420 0.00 0.00 16 32 328 0.46
07/12/2016 2557.58 153550 -842 361250 -207700 679 345 345 0.00 0.00 19 32 383 0.50
07/13/2016 2557.45 152822 -728 361250 -208428 642 360 360 0.04 0.00 19 35 261 0.47
07/14/2016 2557.31 152042 -780 361250 -209208 652 346 346 0.02 0.00 19 37 246 0.48
07/15/2016 2557.16 151208 -834 361250 -210042 671 343 343 0.00 0.00 22 36 297 0.52
07/16/2016 2556.99 150267 -941 361250 -210983 701 319 319 0.00 0.00 23 36 296 0.51
07/17/2016 2556.80 149219 -1048 361250 -212031 744 304 304 0.00 0.00 21 35 277 0.49
07/18/2016 2556.61 148177 -1042 361250 -213073 753 313 313 0.00 0.00 20 34 268 0.48
07/19/2016 2556.43 147194 -983 361250 -214056 734 321 321 0.00 0.00 19 35 249 0.46
07/20/2016 2556.23 146106 -1088 361250 -215144 725 259 259 0.02 0.00 19 37 231 0.47
07/21/2016 2556.04 145078 -1028 361250 -216172 732 297 297 0.00 0.00 20 36 258 0.48
07/22/2016 2555.83 143947 -1131 361250 -217303 701 226 -- 0.00 0.00 22 34 418 0.55
07/23/2016 2555.64 142928 -1019 361250 -218322 700 278 -- 0.00 0.00 21 36 356 0.53
07/24/2016 -- -- -- -- -- -- -- -- -- 0.00 -- -- -- --

Later | Latest

Warning! This data is preliminary and subject to revision.

Show ISB Map | Plot ISB Data | 1 Month ISB Data | Real-Time ISB Data | ISB Info